Thunder radar more information blitzortung!


Radar de pluja more information rain snow radar


Visita la nostra xarxa de llocs de meteo:

Template documentation
and downloads

And another site



No particular awareness of the weather is required.    There are no Weather-warnings

Pagina Historial Weather Underground text

Diari Resum February 2, 2018 Unitats:  Mètric    Imperial   Tant
« Previous Dia
SegĂźent Dia »
Diari Setmana Mensual Anual Personalitzada
  Maxima: Minima: Media:
Temperatura: -17.8 °C -15.9 °C -14.4 °C
Punt de rosada: -17.8 °C -22.1 °C -17.9 °C
Humitat: Humidity % 43 % 65 %
Wind Speed: 0 km/h 0 km/h 5.8 km/h
RĂ fegues de vent: 0 km/h - -
Vent:- - South
Pression baro: 0 hPa 33992.1 hPa -
Precipitacions: 25.4 mm    
Historical Graphs
 
 
Dades de taula per February 2, 2018
Temps Temperatura Punt de rosada Pression baro Vent Wind Speed RĂ fegues de vent Humitat Rainfall Rate (Hourly)
-17.8 °C -17.8 °C 0 hPa Calm     Humidity % 0 mm
00:04 -15 °C -16.8 °C 34130.9 hPa ESE 6.3 km/h 6.3 km/h 79 % 0 mm
00:09 -15 °C -16.8 °C 34130.9 hPa East 9 km/h 9 km/h 79 % 0 mm
00:14 -15.1 °C -16.8 °C 34130.9 hPa ENE 9 km/h 9 km/h 80 % 0 mm
00:19 -15.1 °C -16.8 °C 34130.9 hPa ESE 11.9 km/h 11.9 km/h 80 % 0 mm
00:24 -15.1 °C -16.8 °C 34130.9 hPa ENE 6 km/h 6 km/h 80 % 0 mm
00:29 -15.2 °C -16.9 °C 34130.9 hPa ENE 11.9 km/h 11.9 km/h 80 % 0 mm
00:34 -15.2 °C -16.8 °C 34130.9 hPa East 6.3 km/h 6.3 km/h 81 % 0 mm
00:39 -15.2 °C -16.8 °C 34130.9 hPa ESE 11.9 km/h 11.9 km/h 81 % 0 mm
00:44 -15.2 °C -16.8 °C 34130.9 hPa East 9 km/h 9 km/h 82 % 0 mm
00:49 -15.2 °C -16.8 °C 34130.9 hPa East 11.9 km/h 11.9 km/h 82 % 0 mm
00:54 -15.2 °C -16.8 °C 34130.9 hPa ESE 11.9 km/h 11.9 km/h 82 % 0 mm
00:59 -15.3 °C -16.7 °C 34130.9 hPa ENE 9 km/h 9 km/h 83 % 33.02 mm
01:04 -15.3 °C -16.7 °C 34130.9 hPa ENE 11.9 km/h 11.9 km/h 83 % 0 mm
01:09 -15.4 °C -16.8 °C 34130.9 hPa ESE 15 km/h 15 km/h 83 % 33.02 mm
01:14 -15.4 °C -16.8 °C 34097 hPa SSE 11.9 km/h 11.9 km/h 83 % 33.02 mm
01:19 -15.4 °C -16.8 °C 34097 hPa ESE 6 km/h 6.3 km/h 83 % 33.02 mm
01:24 -15.4 °C -16.8 °C 34097 hPa East 9 km/h 9 km/h 83 % 33.02 mm
01:29 -15.4 °C -16.9 °C 34097 hPa ESE 6 km/h 6 km/h 83 % 33.02 mm
01:34 -15.5 °C -17 °C 34097 hPa Calm     83 % 33.02 mm
01:39 -15.4 °C -16.9 °C 34097 hPa Calm     83 % 33.02 mm
01:44 -15.4 °C -16.9 °C 34097 hPa Calm     83 % 33.02 mm
01:49 -15.4 °C -16.9 °C 34097 hPa SSW 3.1 km/h   83 % 33.02 mm
01:54 -15.4 °C -16.9 °C 34097 hPa SSW 3.1 km/h 3.1 km/h 83 % 33.02 mm
01:59 -15.5 °C -17 °C 34097 hPa Calm     83 % 33.02 mm
02:04 -15.5 °C -17.1 °C 34097 hPa WSW 6 km/h 6 km/h 82 % 33.02 mm
02:09 -15.5 °C -17.1 °C 34097 hPa WSW 3.7 km/h 3.7 km/h 82 % 0 mm
03:25 -15.9 °C -17.3 °C 34097 hPa WSW 2.6 km/h 5.1 km/h 84 % 0 mm
09:26 -15.9 °C -17.3 °C 34097 hPa WSW 6 km/h 6 km/h 84 % 0 mm
09:32 -15.8 °C -17.2 °C 34063.2 hPa WSW 6 km/h 6 km/h 84 % 0 mm
09:37 -15.8 °C -17.2 °C 34063.2 hPa WSW 3.1 km/h 3.7 km/h 84 % 0 mm
09:42 -15.8 °C -17.1 °C 34063.2 hPa WSW 3.1 km/h 3.1 km/h 84 % 0 mm
09:47 -15.8 °C -17.1 °C 34097 hPa SW 6 km/h 6 km/h 84 % 0 mm
09:52 -15.7 °C -17.1 °C 34097 hPa SW 3.1 km/h   84 % 0 mm
09:57 -15.7 °C -17.1 °C 34097 hPa Calm     84 % 0 mm
10:02 -15.7 °C -17.1 °C 34063.2 hPa Calm     84 % 0 mm
10:07 -15.6 °C -17 °C 34063.2 hPa Calm     84 % 0 mm
10:12 -15.6 °C -17.1 °C 34063.2 hPa Calm     83 % 0 mm
10:17 -15.6 °C -17 °C 34097 hPa Calm     83 % 0 mm
10:22 -15.4 °C -16.9 °C 34097 hPa SW 3.1 km/h 3.1 km/h 83 % 0 mm
10:27 -15.4 °C -16.8 °C 34097 hPa Calm     83 % 0 mm
10:32 -15.3 °C -16.7 °C 34097 hPa Calm     83 % 0 mm
10:37 -15.2 °C -16.7 °C 34097 hPa Calm     83 % 0 mm
10:42 -15.2 °C -16.6 °C 34097 hPa Calm     83 % 0 mm
10:47 -15.2 °C -16.6 °C 34097 hPa Calm     83 % 0 mm
10:52 -15.2 °C -16.7 °C 34097 hPa Calm     82 % 0 mm
10:57 -15.1 °C -16.7 °C 34097 hPa NNE 6.8 km/h 6.8 km/h 82 % 0 mm
11:02 -15.2 °C -16.8 °C 34097 hPa NE 6 km/h   82 % 0 mm
11:07 -15.1 °C -16.7 °C 34097 hPa NE 5.1 km/h 5.1 km/h 82 % 0 mm
11:12 -15.1 °C -16.8 °C 34097 hPa NNE 6.8 km/h 6.8 km/h 81 % 0 mm
11:17 -15.1 °C -16.8 °C 34063.2 hPa NE 3.1 km/h   81 % 0 mm
11:22 -15 °C -16.7 °C 34063.2 hPa Calm     81 % 0 mm
11:27 -14.9 °C -16.6 °C 34063.2 hPa ENE 2.3 km/h   81 % 0 mm
11:32 -14.9 °C -16.7 °C 34097 hPa NE 3.1 km/h   80 % 0 mm
11:37 -14.9 °C -16.8 °C 34097 hPa ENE 3.1 km/h 3.1 km/h 79 % 0 mm
11:42 -14.7 °C -16.6 °C 34097 hPa Calm   3.1 km/h 79 % 0 mm
11:47 -14.6 °C -16.5 °C 34097 hPa North 3.1 km/h   79 % 0 mm
11:52 -14.5 °C -16.3 °C 34097 hPa WNW 6 km/h 6 km/h 79 % 0 mm
11:57 -14.4 °C -16.3 °C 34097 hPa NNE 3.1 km/h   79 % 0 mm
12:02 -14.4 °C -16.3 °C 34097 hPa ENE 8.5 km/h 9.3 km/h 78 % 0 mm
12:07 -14.3 °C -16.3 °C 34097 hPa NNE 7.6 km/h 7.6 km/h 78 % 0 mm
12:12 -14.3 °C -16.5 °C 34097 hPa NE 3.7 km/h 3.7 km/h 76 % 0 mm
12:17 -14.2 °C -16.2 °C 34063.2 hPa NNE 9 km/h 9 km/h 77 % 0 mm
12:22 -14 °C -16.1 °C 34063.2 hPa NNE 4.2 km/h   77 % 0 mm
12:27 -14 °C -16.2 °C 34063.2 hPa NNE 7.6 km/h 7.6 km/h 76 % 0 mm
12:32 -14.2 °C -16.3 °C 34063.2 hPa NE 9 km/h 9 km/h 76 % 0 mm
12:37 -14.1 °C -16.2 °C 34063.2 hPa East 6 km/h 6.3 km/h 76 % 0 mm
12:42 -14.1 °C -16.4 °C 34063.2 hPa East 6 km/h 6.3 km/h 75 % 0 mm
12:47 -14.1 °C -16.3 °C 34029.3 hPa Calm   2.3 km/h 75 % 0 mm
12:52 -14.1 °C -16.3 °C 34029.3 hPa NNE 6 km/h 6 km/h 75 % 0 mm
12:57 -13.9 °C -16.2 °C 34029.3 hPa WNW 3.1 km/h 3.7 km/h 75 % 0 mm
13:02 -13.9 °C -16.2 °C 34063.2 hPa NE 5.1 km/h   75 % 0 mm
13:07 -13.9 °C -16.3 °C 34063.2 hPa NNE 6.8 km/h 6.8 km/h 74 % 0 mm
13:12 -13.9 °C -16.3 °C 34063.2 hPa ENE 6 km/h 6 km/h 74 % 0 mm
13:17 -14 °C -16.5 °C 34063.2 hPa ENE 6 km/h 6 km/h 73 % 0 mm
13:22 -13.9 °C -16.3 °C 34063.2 hPa NNE 7.6 km/h 7.6 km/h 74 % 0 mm
13:27 -14 °C -16.5 °C 34063.2 hPa ENE 9 km/h 9 km/h 73 % 0 mm
13:32 -13.9 °C -16.4 °C 34063.2 hPa NNE 3.1 km/h 3.1 km/h 73 % 0 mm
13:37 -13.8 °C -16.3 °C 34063.2 hPa Calm   2.3 km/h 73 % 0 mm
13:42 -13.8 °C -16.4 °C 34063.2 hPa East 3.1 km/h 3.1 km/h 72 % 0 mm
13:47 -13.7 °C -16.4 °C 34063.2 hPa ENE 3.1 km/h 4.2 km/h 71 % 0 mm
13:52 -13.7 °C -16.4 °C 34063.2 hPa ENE 6 km/h 6 km/h 71 % 0 mm
13:57 -13.6 °C -16.2 °C 34063.2 hPa NNE 3.1 km/h 3.7 km/h 72 % 0 mm
14:02 -13.4 °C -16.1 °C 33992.1 hPa WSW 3.1 km/h 3.7 km/h 72 % 0 mm
14:07 -13.2 °C -15.8 °C 33992.1 hPa West 3.1 km/h 3.1 km/h 72 % 0 mm
14:12 -13 °C -15.7 °C 33992.1 hPa Calm   2.3 km/h 72 % 0 mm
14:17 -13 °C -15.9 °C 33992.1 hPa WNW 3.1 km/h   70 % 0 mm
14:22 -13.1 °C -16 °C 33992.1 hPa NE 6.8 km/h 6.8 km/h 70 % 0 mm
14:27 -13.2 °C -16.2 °C 33992.1 hPa NNE 6 km/h 6 km/h 69 % 0 mm
14:32 -13.2 °C -16.2 °C 33992.1 hPa ENE 9 km/h 9 km/h 69 % 0 mm
14:37 -13.2 °C -16.2 °C 33992.1 hPa NNE 9 km/h 9 km/h 69 % 0 mm
14:42 -13 °C -16 °C 33992.1 hPa NNE 6 km/h 6 km/h 69 % 0 mm
14:47 -13.1 °C -16.2 °C 33992.1 hPa NNE 11.9 km/h 11.9 km/h 68 % 0 mm
14:52 -13.1 °C -16.2 °C 33992.1 hPa ENE 9 km/h 9 km/h 68 % 0 mm
14:57 -13.1 °C -16.2 °C 33992.1 hPa NNE 9 km/h 9 km/h 68 % 0 mm
15:02 -13 °C -16.1 °C 34029.3 hPa NNE 6.3 km/h 6.3 km/h 68 % 0 mm
15:07 -12.9 °C -16.3 °C 34029.3 hPa East 6 km/h 6 km/h 66 % 0 mm
15:12 -12.7 °C -15.8 °C 34029.3 hPa SW 6 km/h 6.3 km/h 68 % 0 mm
15:17 -12.6 °C -15.8 °C 34029.3 hPa West 10.3 km/h 10.3 km/h 67 % 0 mm
15:22 -12.4 °C -15.8 °C 34029.3 hPa WSW 9 km/h 9.3 km/h 66 % 0 mm
15:27 -12.3 °C -15.8 °C 34029.3 hPa West 20.9 km/h 20.9 km/h 65 % 0 mm
15:32 -12.3 °C -15.8 °C 34029.3 hPa WSW 15.6 km/h 15.6 km/h 65 % 0 mm
15:37 -12.5 °C -16.2 °C 34029.3 hPa West 9 km/h 9 km/h 63 % 0 mm
15:42 -12.4 °C -16.2 °C 34029.3 hPa WSW 11.9 km/h 11.9 km/h 63 % 0 mm
15:47 -12.6 °C -16.5 °C 34063.2 hPa WNW 11.9 km/h 11.9 km/h 61 % 0 mm
15:52 -12.5 °C -16.5 °C 34063.2 hPa West 6.8 km/h 11.1 km/h 61 % 0 mm
15:57 -12.5 °C -16.5 °C 34063.2 hPa NW 3.1 km/h 3.7 km/h 61 % 0 mm
16:02 -12.4 °C -16.4 °C 34063.2 hPa SW 9 km/h 9 km/h 61 % 0 mm
16:07 -12.4 °C -16.3 °C 34063.2 hPa West 9 km/h 9 km/h 61 % 0 mm
16:12 -12.3 °C -16.3 °C 34063.2 hPa SW 9 km/h 9 km/h 61 % 0 mm
16:17 -12.4 °C -16.3 °C 34063.2 hPa WNW 11.9 km/h 11.9 km/h 61 % 0 mm
16:22 -12.5 °C -16.6 °C 34063.2 hPa WSW 7.6 km/h 7.6 km/h 60 % 0 mm
16:27 -12.5 °C -16.6 °C 34063.2 hPa NW 6 km/h 6 km/h 60 % 0 mm
16:32 -12.4 °C -16.7 °C 34063.2 hPa West 3.1 km/h 6.3 km/h 59 % 0 mm
16:37 -12.4 °C -16.6 °C 34063.2 hPa WNW 9.3 km/h 9.3 km/h 60 % 0 mm
16:42 -12.4 °C -16.8 °C 34063.2 hPa NW 6 km/h 6 km/h 58 % 0 mm
16:47 -12.3 °C -16.7 °C 34029.3 hPa WNW 11.9 km/h 11.9 km/h 58 % 0 mm
16:52 -12.3 °C -16.8 °C 34029.3 hPa NNW 6 km/h   57 % 0 mm
16:57 -12.3 °C -16.8 °C 34029.3 hPa East 3.1 km/h   57 % 0 mm
17:02 -12.3 °C -16.8 °C 34029.3 hPa WSW 6 km/h 6 km/h 57 % 0 mm
17:07 -12.3 °C -16.8 °C 34029.3 hPa NNE 4.2 km/h   57 % 0 mm
17:12 -12.4 °C -16.9 °C 34029.3 hPa NNW 4.2 km/h 4.2 km/h 57 % 0 mm
17:13 -12.4 °C -16.9 °C 34029.3 hPa NNW 4.2 km/h 4.2 km/h 57 % 0 mm
17:18 -12.4 °C -17.1 °C 34063.2 hPa NW 3.1 km/h   56 % 0 mm
17:23 -12.5 °C -17.1 °C 34063.2 hPa North 3.7 km/h 3.7 km/h 56 % 0 mm
17:28 -12.7 °C -17.3 °C 34063.2 hPa NE 6 km/h 6 km/h 56 % 0 mm
17:33 -12.7 °C -17.3 °C 34063.2 hPa Calm     56 % 0 mm
17:38 -12.7 °C -17.5 °C 34063.2 hPa NE 3.1 km/h 3.1 km/h 55 % 0 mm
17:43 -12.8 °C -17.6 °C 34063.2 hPa NE 3.1 km/h   55 % 0 mm
17:48 -12.9 °C -17.7 °C 34029.3 hPa Calm     55 % 0 mm
17:53 -12.9 °C -17.7 °C 34029.3 hPa Calm     55 % 0 mm
17:58 -12.9 °C -17.7 °C 34029.3 hPa Calm     55 % 0 mm
18:03 -13 °C -17.6 °C 34063.2 hPa Calm     56 % 0 mm
18:08 -13.1 °C -17.7 °C 34063.2 hPa Calm     56 % 0 mm
18:13 -13.2 °C -17.7 °C 34063.2 hPa Calm     57 % 0 mm
18:18 -13.3 °C -17.9 °C 34063.2 hPa Calm     56 % 0 mm
18:23 -13.4 °C -17.9 °C 34063.2 hPa Calm     56 % 0 mm
18:28 -13.5 °C -17.9 °C 34063.2 hPa WNW 3.1 km/h 3.1 km/h 57 % 0 mm
18:33 -13.6 °C -18.1 °C 34063.2 hPa Calm     57 % 0 mm
18:38 -13.7 °C -18 °C 34063.2 hPa West 6 km/h 6 km/h 58 % 0 mm
18:43 -13.8 °C -18 °C 34063.2 hPa WSW 6.3 km/h 6.8 km/h 59 % 0 mm
18:48 -13.8 °C -18.1 °C 34063.2 hPa West 3.1 km/h 3.1 km/h 58 % 0 mm
18:53 -13.9 °C -18.2 °C 34063.2 hPa NE 6.3 km/h 6.3 km/h 58 % 0 mm
18:58 -14.1 °C -18.3 °C 34063.2 hPa West 6.3 km/h   58 % 0 mm
19:03 -14.1 °C -18.4 °C 34097 hPa WNW 3.1 km/h 3.1 km/h 58 % 0 mm
19:08 -14.1 °C -18.5 °C 34097 hPa WSW 6.8 km/h 6.8 km/h 57 % 0 mm
19:13 -14.1 °C -18.6 °C 34097 hPa WSW 6 km/h 6.8 km/h 56 % 0 mm
19:18 -14.1 °C -18.6 °C 34097 hPa WSW 9 km/h 9 km/h 56 % 0 mm
19:23 -14.1 °C -18.9 °C 34097 hPa West 6 km/h 6 km/h 54 % 0 mm
19:28 -14.2 °C -19 °C 34097 hPa East 9 km/h 9 km/h 54 % 0 mm
19:33 -14.1 °C -19.2 °C 34097 hPa NE 6 km/h 6 km/h 52 % 0 mm
19:38 -13.9 °C -19.1 °C 34097 hPa SW 9 km/h 9 km/h 52 % 0 mm
19:43 -14.2 °C -19.3 °C 34097 hPa WSW 6.8 km/h 6.8 km/h 52 % 0 mm
19:48 -14.3 °C -19.4 °C 34097 hPa SW 3.1 km/h 3.7 km/h 52 % 0 mm
19:53 -14.4 °C -19.7 °C 34097 hPa WSW 3.1 km/h   51 % 0 mm
19:58 -14.4 °C -19.7 °C 34097 hPa ENE 6 km/h 6 km/h 51 % 0 mm
20:03 -14.4 °C -19.7 °C 34097 hPa WSW 3.7 km/h 3.7 km/h 51 % 0 mm
20:08 -14.6 °C -19.8 °C 34097 hPa WSW 3.7 km/h 3.7 km/h 51 % 0 mm
20:13 -14.6 °C -19.8 °C 34097 hPa WSW 6 km/h 6 km/h 51 % 0 mm
20:18 -14.6 °C -19.8 °C 34130.9 hPa NW 6 km/h 6 km/h 51 % 0 mm
20:23 -14.6 °C -19.8 °C 34130.9 hPa WSW 9.3 km/h 9.3 km/h 51 % 0 mm
20:28 -14.8 °C -19.9 °C 34130.9 hPa SW 6 km/h 6 km/h 51 % 0 mm
20:33 -14.9 °C -20.1 °C 34097 hPa WSW 9 km/h 9 km/h 51 % 0 mm
20:38 -15.1 °C -20.4 °C 34097 hPa SW 3.1 km/h   50 % 0 mm
20:43 -15.2 °C -20.4 °C 34097 hPa SW 9 km/h 9 km/h 51 % 0 mm
20:48 -15.4 °C -20.7 °C 34097 hPa SW 9 km/h 9 km/h 50 % 0 mm
20:53 -15.4 °C -20.7 °C 34097 hPa SW 9.8 km/h 9.8 km/h 50 % 0 mm
20:58 -15.4 °C -20.7 °C 34097 hPa West 4.2 km/h 5.1 km/h 50 % 0 mm
21:03 -15.6 °C -20.8 °C 34130.9 hPa West 4.2 km/h 5.1 km/h 50 % 0 mm
21:08 -15.7 °C -21 °C 34130.9 hPa SW 4.2 km/h 5.1 km/h 50 % 0 mm
21:13 -15.8 °C -21.1 °C 34130.9 hPa WSW 7.6 km/h 7.6 km/h 50 % 0 mm
21:18 -15.8 °C -21.1 °C 34130.9 hPa WSW 9 km/h 9 km/h 50 % 0 mm
21:23 -15.8 °C -21.1 °C 34130.9 hPa WSW 9.3 km/h 9.3 km/h 50 % 0 mm
21:28 -15.7 °C -21 °C 34130.9 hPa West 6 km/h 9.3 km/h 50 % 0 mm
21:33 -15.6 °C -21 °C 34130.9 hPa West 6 km/h 9.3 km/h 49 % 0 mm
21:38 -15.5 °C -20.9 °C 34130.9 hPa West 12.2 km/h 12.2 km/h 49 % 0 mm
21:43 -15.5 °C -21.1 °C 34130.9 hPa NNW 6 km/h 6 km/h 48 % 0 mm
21:48 -15.5 °C -21.2 °C 34130.9 hPa West 6 km/h 6 km/h 47 % 0 mm
21:53 -15.5 °C -21.2 °C 34130.9 hPa SW 9 km/h 9 km/h 47 % 0 mm
21:58 -15.5 °C -21.2 °C 34130.9 hPa WNW 11.9 km/h 11.9 km/h 47 % 0 mm
22:03 -15.6 °C -21.4 °C 34130.9 hPa West 6 km/h 6 km/h 46 % 0 mm
22:08 -15.6 °C -21.4 °C 34130.9 hPa SW 9.3 km/h 9.3 km/h 46 % 0 mm
22:13 -15.6 °C -21.4 °C 34130.9 hPa West 3.1 km/h 3.1 km/h 46 % 0 mm
22:18 -15.6 °C -21.4 °C 34130.9 hPa ENE 3.7 km/h 3.7 km/h 46 % 0 mm
22:23 -15.6 °C -21.4 °C 34130.9 hPa WSW 9.8 km/h 9.8 km/h 46 % 0 mm
22:28 -15.6 °C -21.5 °C 34130.9 hPa WSW 6 km/h 6 km/h 46 % 0 mm
22:33 -15.7 °C -21.6 °C 34130.9 hPa West 15 km/h 15 km/h 46 % 0 mm
22:38 -15.7 °C -21.6 °C 34130.9 hPa SSW 11.9 km/h 11.9 km/h 46 % 0 mm
22:43 -15.7 °C -21.6 °C 34130.9 hPa SSE 11.9 km/h 11.9 km/h 46 % 0 mm
22:48 -15.6 °C -21.5 °C 34130.9 hPa WSW 11.9 km/h 11.9 km/h 46 % 0 mm
22:53 -15.6 °C -21.6 °C 34130.9 hPa West 6 km/h 6 km/h 45 % 0 mm
22:58 -15.5 °C -21.6 °C 34130.9 hPa NNW 12.2 km/h 12.2 km/h 45 % 0 mm
23:03 -15.5 °C -21.6 °C 34130.9 hPa WSW 6.8 km/h 6.8 km/h 45 % 0 mm
23:08 -15.5 °C -21.6 °C 34130.9 hPa WSW 11.9 km/h 11.9 km/h 45 % 0 mm
23:13 -15.6 °C -21.6 °C 34130.9 hPa West 11.9 km/h 11.9 km/h 45 % 0 mm
23:18 -15.7 °C -21.8 °C 34130.9 hPa NNW 6 km/h 6 km/h 44 % 0 mm
23:23 -15.7 °C -21.8 °C 34130.9 hPa West 9 km/h 9 km/h 44 % 0 mm
23:28 -15.7 °C -21.8 °C 34130.9 hPa SW 6 km/h 6 km/h 44 % 0 mm
23:33 -15.7 °C -21.9 °C 34130.9 hPa WNW 4.2 km/h 5.1 km/h 44 % 0 mm
23:38 -15.7 °C -21.8 °C 34130.9 hPa WNW 8 km/h 8 km/h 44 % 0 mm
23:43 -15.7 °C -21.9 °C 34130.9 hPa WSW 6 km/h 6 km/h 44 % 0 mm
23:48 -15.7 °C -21.9 °C 34130.9 hPa WSW 6 km/h 6 km/h 44 % 0 mm
23:53 -15.7 °C -21.9 °C 34130.9 hPa WSW 9 km/h 9 km/h 44 % 0 mm
23:58 -15.7 °C -22.1 °C 34130.9 hPa WSW 6 km/h   43 % 0 mm
Meteo Sesrovires
Elogis d' Weather Underground - 3.5 mb

Guio original per  Jim McMurry - jmcmurry@mwt.net Adaptat per a la plantilla per  Wim van der Kuil - Leuven-Template.eu

Trobareu la nostra informacio del temps tambe a:

Weather Underground

AWEKAS